Time;durP1;ratioP1;P1;durP2;ratioP2;P2;SDS_P1;SDS_P2;PMS_P1;PMS_P2;Temp;Humidity;BMP_temperature;BMP_pressure;BME280_temperature;BME280_humidity;BME280_pressure;Samples;Min_cycle;Max_cycle;Signal;HPM_P1;HPM_P2
2021/04/05 00:01:16;;;;;;;44.33;16.23;;;-2.20;99.90;;;;;;4422187;28;659513;-83
2021/04/05 00:04:04;;;;;;;39.80;16.40;;;-2.20;99.90;;;;;;4400873;28;659817;-83
2021/04/05 00:06:52;;;;;;;44.50;16.20;;;-2.20;99.90;;;;;;4416374;28;659643;-83
2021/04/05 00:09:40;;;;;;;39.10;15.73;;;-2.20;99.90;;;;;;4399646;28;660034;-83
2021/04/05 00:12:27;;;;;;;36.67;14.80;;;-2.20;99.90;;;;;;4407347;28;659712;-83
2021/04/05 00:15:15;;;;;;;41.23;15.97;;;-2.30;99.90;;;;;;4421834;28;659929;-83
2021/04/05 00:18:02;;;;;;;43.87;15.73;;;-2.30;99.90;;;;;;4403805;28;659765;-83
2021/04/05 00:20:52;;;;;;;42.50;16.20;;;-2.30;99.90;;;;;;4411017;28;660524;-83
2021/04/05 00:23:39;;;;;;;39.07;16.00;;;-2.30;99.90;;;;;;4402077;28;660801;-83
2021/04/05 00:26:26;;;;;;;42.45;15.15;;;-2.30;99.90;;;;;;4419257;28;659796;-83
2021/04/05 00:29:14;;;;;;;47.80;16.13;;;-2.30;99.90;;;;;;4388296;28;659503;-82
2021/04/05 00:32:01;;;;;;;44.17;16.63;;;-2.30;99.90;;;;;;4414439;28;660220;-82
2021/04/05 00:34:48;;;;;;;41.93;15.83;;;-2.30;99.90;;;;;;4392955;28;659740;-83
2021/04/05 00:37:36;;;;;;;37.23;16.00;;;-2.30;99.90;;;;;;4428460;28;660245;-83
2021/04/05 00:40:24;;;;;;;42.53;15.80;;;-2.40;99.90;;;;;;4393473;28;659517;-83
2021/04/05 00:43:12;;;;;;;39.60;14.40;;;-2.40;99.90;;;;;;4416529;28;659989;-83
2021/04/05 00:45:59;;;;;;;35.73;15.13;;;-2.40;99.90;;;;;;4403346;28;660155;-83
2021/04/05 00:48:46;;;;;;;46.00;15.80;;;-2.40;99.90;;;;;;4412385;28;660045;-83
2021/04/05 00:51:33;;;;;;;45.72;15.73;;;-2.40;99.90;;;;;;4400369;28;659728;-82
2021/04/05 00:54:22;;;;;;;41.17;16.10;;;-2.40;99.90;;;;;;4417906;28;660897;-83
2021/04/05 00:57:09;;;;;;;40.30;15.53;;;-2.40;99.90;;;;;;4393941;28;660583;-82
2021/04/05 00:59:56;;;;;;;48.13;16.63;;;-2.40;99.90;;;;;;4414929;28;659451;-83
2021/04/05 01:02:44;;;;;;;38.77;15.67;;;-2.50;99.90;;;;;;4403118;28;659501;-83
2021/04/05 01:05:31;;;;;;;36.90;15.20;;;-2.50;99.90;;;;;;4409477;28;660595;-83
2021/04/05 01:08:18;;;;;;;48.83;16.20;;;-2.50;99.90;;;;;;4395969;28;659663;-83
2021/04/05 01:11:07;;;;;;;44.77;17.57;;;-2.50;99.90;;;;;;4413182;28;660601;-83
2021/04/05 01:13:55;;;;;;;36.77;14.90;;;-2.50;99.90;;;;;;4385187;28;661052;-83
2021/04/05 01:16:43;;;;;;;37.07;14.77;;;-2.50;99.90;;;;;;4387773;28;659705;-83
2021/04/05 01:19:30;;;;;;;43.92;16.23;;;-2.50;99.90;;;;;;4409130;28;660772;-83
2021/04/05 01:22:18;;;;;;;36.70;14.60;;;-2.50;99.90;;;;;;4353042;28;659640;-83
2021/04/05 01:25:06;;;;;;;39.90;14.97;;;-2.50;99.90;;;;;;4406126;28;660511;-83
2021/04/05 01:27:53;;;;;;;33.63;14.30;;;-2.50;99.90;;;;;;4378665;28;659673;-83
2021/04/05 01:30:41;;;;;;;39.87;14.50;;;-2.50;99.90;;;;;;4409979;28;661058;-82
2021/04/05 01:33:30;;;;;;;33.80;13.15;;;-2.50;99.90;;;;;;4381544;28;659651;-83
2021/04/05 01:36:18;;;;;;;30.70;13.43;;;-2.60;99.90;;;;;;4401022;28;659717;-82
2021/04/05 01:39:06;;;;;;;35.97;12.88;;;-2.60;99.90;;;;;;4402951;28;660629;-83
2021/04/05 01:41:53;;;;;;;32.60;13.80;;;-2.60;99.90;;;;;;4381334;28;660022;-83
2021/04/05 01:44:41;;;;;;;30.60;13.37;;;-2.60;99.90;;;;;;4399690;28;660678;-83
2021/04/05 01:47:28;;;;;;;33.57;13.77;;;-2.60;99.90;;;;;;4371710;28;659669;-83
2021/04/05 01:50:16;;;;;;;30.80;12.17;;;-2.60;99.90;;;;;;4397213;28;661182;-82
2021/04/05 01:53:05;;;;;;;33.53;13.40;;;-2.70;99.90;;;;;;4388801;28;659939;-83
2021/04/05 01:55:53;;;;;;;32.97;13.50;;;-2.60;99.90;;;;;;4403689;28;659591;-83
2021/04/05 01:58:41;;;;;;;31.03;12.47;;;-2.70;99.90;;;;;;4375976;28;660865;-82
2021/04/05 02:01:29;;;;;;;37.37;13.23;;;-2.70;99.90;;;;;;4374283;28;659960;-82
2021/04/05 02:04:16;;;;;;;27.07;12.00;;;-2.70;99.90;;;;;;4407507;28;659475;-82
2021/04/05 02:07:04;;;;;;;29.63;12.37;;;-2.70;99.90;;;;;;4382141;28;660024;-82
2021/04/05 02:09:51;;;;;;;27.57;11.60;;;-2.70;99.90;;;;;;4400746;28;660191;-82
2021/04/05 02:12:40;;;;;;;31.83;11.77;;;-2.70;99.90;;;;;;4374297;28;659957;-82
2021/04/05 02:15:27;;;;;;;28.47;12.50;;;-2.70;99.90;;;;;;4403162;28;659442;-83
2021/04/05 02:18:15;;;;;;;34.10;12.00;;;-2.70;99.90;;;;;;4418932;28;660182;-82
2021/04/05 02:21:03;;;;;;;30.37;12.20;;;-2.70;99.90;;;;;;4412687;28;659773;-82
2021/04/05 02:23:50;;;;;;;28.50;11.53;;;-2.70;99.90;;;;;;4432494;28;660276;-82
2021/04/05 02:26:37;;;;;;;29.83;11.47;;;-2.70;99.90;;;;;;4420426;28;660083;-82
2021/04/05 02:29:25;;;;;;;25.50;10.73;;;-2.70;99.90;;;;;;4400935;28;660903;-82
2021/04/05 02:32:12;;;;;;;29.80;11.70;;;-2.70;99.90;;;;;;4402098;28;660287;-82
2021/04/05 02:35:00;;;;;;;31.73;11.67;;;-2.70;99.90;;;;;;4412394;28;660014;-82
2021/04/05 02:37:47;;;;;;;33.43;12.40;;;-2.70;99.90;;;;;;4424804;28;660085;-82
2021/04/05 02:40:34;;;;;;;31.30;12.03;;;-2.70;99.90;;;;;;4403799;28;660536;-82
2021/04/05 02:43:21;;;;;;;27.05;11.23;;;-2.70;99.90;;;;;;4425162;28;660156;-82
2021/04/05 02:46:14;;;;;;;31.43;12.27;;;-2.70;99.90;;;;;;4393547;28;659537;-83
2021/04/05 02:49:01;;;;;;;31.40;11.33;;;-2.70;99.90;;;;;;4404671;28;661105;-82
2021/04/05 02:51:49;;;;;;;29.87;10.93;;;-2.70;99.90;;;;;;4392318;28;659701;-82
2021/04/05 02:54:36;;;;;;;30.83;12.70;;;-2.70;99.90;;;;;;4431242;28;659421;-82
2021/04/05 02:57:23;;;;;;;28.03;10.87;;;-2.70;99.90;;;;;;4398769;28;659527;-82
2021/04/05 03:00:12;;;;;;;29.77;11.60;;;-2.70;99.90;;;;;;4414838;28;661125;-83
2021/04/05 03:03:00;;;;;;;28.60;11.27;;;-2.70;99.90;;;;;;4404975;28;660832;-82
2021/04/05 03:05:48;;;;;;;28.98;11.68;;;-2.80;99.90;;;;;;4412621;28;659903;-82
2021/04/05 03:08:36;;;;;;;31.57;11.57;;;-2.70;99.90;;;;;;4422506;28;659945;-83
2021/04/05 03:11:23;;;;;;;30.90;11.60;;;-2.70;99.90;;;;;;4398939;28;659884;-82
2021/04/05 03:14:10;;;;;;;29.30;11.87;;;-2.70;99.90;;;;;;4410672;28;660353;-82
2021/04/05 03:16:57;;;;;;;25.40;11.65;;;-2.70;99.90;;;;;;4395827;28;660421;-83
2021/04/05 03:19:45;;;;;;;29.40;11.93;;;-2.70;99.90;;;;;;4413202;28;659488;-82
2021/04/05 03:22:33;;;;;;;25.87;11.27;;;-2.80;99.90;;;;;;4398826;28;660368;-83
2021/04/05 03:25:21;;;;;;;24.87;11.30;;;-2.70;99.90;;;;;;4398811;28;660664;-82
2021/04/05 03:28:08;;;;;;;27.30;11.07;;;-2.70;99.90;;;;;;4390334;28;659521;-82
2021/04/05 03:30:58;;;;;;;27.80;11.33;;;-2.70;99.90;;;;;;4412257;28;660239;-83
2021/04/05 03:33:48;;;;;;;23.17;10.57;;;-2.70;99.90;;;;;;4376162;28;659813;-82
2021/04/05 03:36:38;;;;;;;26.27;9.83;;;-2.70;99.90;;;;;;4390456;28;660784;-83
2021/04/05 03:39:25;;;;;;;27.13;11.37;;;-2.70;99.90;;;;;;4389988;28;658980;-82
2021/04/05 03:42:14;;;;;;;28.58;11.27;;;-2.70;99.90;;;;;;4385838;28;659690;-82
2021/04/05 03:45:05;;;;;;;27.20;10.70;;;-2.70;99.90;;;;;;4398876;28;659187;-83
2021/04/05 03:48:01;;;;;;;20.87;10.00;;;-2.70;99.90;;;;;;4404029;28;659402;-82
2021/04/05 03:50:51;;;;;;;24.33;11.07;;;-2.70;99.90;;;;;;4384517;28;660700;-82
2021/04/05 03:53:41;;;;;;;28.80;10.87;;;-2.70;99.90;;;;;;4389719;28;660216;-82
2021/04/05 03:56:38;;;;;;;24.33;11.20;;;-2.70;99.90;;;;;;4387068;28;659749;-82
2021/04/05 03:59:27;;;;;;;28.63;10.67;;;-2.70;99.90;;;;;;4387019;28;659733;-83
2021/04/05 04:02:16;;;;;;;25.43;10.57;;;-2.70;99.90;;;;;;4391880;28;659838;-82
2021/04/05 04:05:05;;;;;;;23.13;10.57;;;-2.70;99.90;;;;;;4382600;28;659569;-83
2021/04/05 04:07:58;;;;;;;23.60;10.50;;;-2.60;99.90;;;;;;4407902;28;659958;-83
2021/04/05 04:10:48;;;;;;;24.00;10.80;;;-2.70;99.90;;;;;;4391527;28;660057;-82
2021/04/05 04:13:37;;;;;;;23.87;11.10;;;-2.70;99.90;;;;;;4388343;28;660687;-83
2021/04/05 04:16:24;;;;;;;24.38;10.18;;;-2.70;99.90;;;;;;4402613;28;659963;-82
2021/04/05 04:19:12;;;;;;;23.00;10.93;;;-2.70;99.90;;;;;;4427959;28;659835;-83
2021/04/05 04:21:59;;;;;;;23.07;11.23;;;-2.60;99.90;;;;;;4399663;28;659689;-82
2021/04/05 04:24:46;;;;;;;24.07;11.33;;;-2.60;99.90;;;;;;4421460;28;659518;-82
2021/04/05 04:27:35;;;;;;;27.87;11.43;;;-2.60;99.90;;;;;;4398772;28;659838;-82
2021/04/05 04:30:32;;;;;;;31.33;13.10;;;-2.50;99.90;;;;;;4393583;28;659921;-83
2021/04/05 04:33:19;;;;;;;28.67;11.57;;;-2.50;99.90;;;;;;4404155;28;659557;-82
2021/04/05 04:36:07;;;;;;;25.90;10.40;;;-2.40;99.90;;;;;;4409471;28;659680;-83
2021/04/05 04:38:54;;;;;;;24.30;10.07;;;-2.30;99.90;;;;;;4403277;28;659475;-83
2021/04/05 04:41:42;;;;;;;22.13;10.77;;;-2.30;99.90;;;;;;4422784;28;659842;-82
2021/04/05 04:44:29;;;;;;;22.63;10.57;;;-2.20;99.90;;;;;;4398191;28;660138;-82
2021/04/05 04:47:16;;;;;;;29.07;11.63;;;-2.00;99.90;;;;;;4423031;28;659937;-83
2021/04/05 04:50:04;;;;;;;29.17;11.40;;;-1.90;99.90;;;;;;4400159;28;659654;-82
2021/04/05 04:52:51;;;;;;;25.43;10.17;;;-1.80;99.90;;;;;;4409576;28;659171;-82
2021/04/05 04:55:39;;;;;;;27.03;10.40;;;-1.60;99.90;;;;;;4396930;28;660080;-83
2021/04/05 04:58:25;;;;;;;31.23;11.90;;;-1.50;99.90;;;;;;4411873;28;659976;-83
2021/04/05 05:01:14;;;;;;;36.80;13.07;;;-1.40;99.90;;;;;;4377381;28;659523;-83
2021/04/05 05:04:05;;;;;;;25.53;10.93;;;-1.10;99.90;;;;;;4430360;28;659460;-83
2021/04/05 05:06:53;;;;;;;28.93;11.07;;;-1.00;99.90;;;;;;4413364;28;659554;-83
2021/04/05 05:09:40;;;;;;;30.70;10.73;;;-0.80;99.90;;;;;;4424246;28;660212;-83
2021/04/05 05:12:28;;;;;;;37.63;12.60;;;-0.60;99.90;;;;;;4398627;28;659728;-83
2021/04/05 05:15:15;;;;;;;40.90;15.60;;;-0.50;99.90;;;;;;4400626;28;660741;-83
2021/04/05 05:18:04;;;;;;;37.55;14.57;;;-0.30;99.90;;;;;;4413583;28;660104;-83
2021/04/05 05:20:51;;;;;;;39.27;15.20;;;-0.10;99.90;;;;;;4432343;28;659546;-83
2021/04/05 05:23:38;;;;;;;37.43;14.30;;;0.10;99.90;;;;;;4424252;28;659838;-83
2021/04/05 05:26:26;;;;;;;38.10;14.90;;;0.30;99.90;;;;;;4429034;28;659513;-83
2021/04/05 05:29:13;;;;;;;40.73;14.83;;;0.40;99.90;;;;;;4401303;28;658679;-83
2021/04/05 05:32:00;;;;;;;33.30;11.70;;;0.60;99.90;;;;;;4443814;28;660137;-83
2021/04/05 05:34:48;;;;;;;38.25;12.02;;;0.70;99.90;;;;;;4426510;28;658860;-85
2021/04/05 05:37:35;;;;;;;24.80;10.23;;;0.90;99.90;;;;;;4451551;28;659314;-85
2021/04/05 05:40:23;;;;;;;24.65;9.90;;;1.10;99.90;;;;;;4424491;28;658611;-85
2021/04/05 05:43:17;;;;;;;22.20;9.75;;;1.30;99.90;;;;;;4435794;28;657968;-86
2021/04/05 05:46:10;;;;;;;24.13;10.60;;;1.40;99.90;;;;;;4400189;28;657967;-86
2021/04/05 05:49:06;;;;;;;20.50;9.70;;;1.60;99.90;;;;;;4423482;28;658861;-84
2021/04/05 05:52:08;;;;;;;21.37;9.33;;;1.70;99.90;;;;;;4409665;28;657596;-84
2021/04/05 05:55:24;;;;;;;24.90;9.83;;;1.90;99.90;;;;;;4421269;28;657710;-84
2021/04/05 05:58:13;;;;;;;19.30;8.63;;;2.10;99.90;;;;;;4349884;28;657422;-84
2021/04/05 06:01:03;;;;;;;20.57;9.23;;;2.20;99.90;;;;;;4344358;28;658550;-85
2021/04/05 06:03:55;;;;;;;18.47;8.07;;;2.50;99.90;;;;;;4332886;28;658376;-86
2021/04/05 06:06:50;;;;;;;20.03;8.63;;;2.60;99.90;;;;;;4316656;28;657845;-85
2021/04/05 06:10:03;;;;;;;18.23;8.43;;;2.70;99.90;;;;;;4337190;28;657809;-85
2021/04/05 06:12:56;;;;;;;11.15;5.63;;;2.90;99.90;;;;;;4349765;28;658016;-85
2021/04/05 06:15:52;;;;;;;15.07;6.20;;;3.10;99.90;;;;;;4329588;28;657413;-85
2021/04/05 06:18:43;;;;;;;15.73;5.73;;;3.20;99.90;;;;;;4340003;28;657593;-84
2021/04/05 06:21:35;;;;;;;10.63;5.43;;;3.40;99.90;;;;;;4344801;28;657913;-85
2021/04/05 06:24:25;;;;;;;12.13;5.40;;;3.60;99.90;;;;;;4360716;28;657541;-85
2021/04/05 06:27:16;;;;;;;12.23;5.73;;;3.80;99.90;;;;;;4350021;28;658149;-85
2021/04/05 06:30:06;;;;;;;11.63;4.67;;;4.00;99.90;;;;;;4333973;28;657333;-85
2021/04/05 06:32:56;;;;;;;12.13;5.70;;;4.20;99.90;;;;;;4336991;28;657606;-85
2021/04/05 06:35:56;;;;;;;12.27;4.77;;;4.40;99.90;;;;;;4356898;28;658022;-85
2021/04/05 06:38:46;;;;;;;9.23;4.32;;;4.50;99.90;;;;;;4414313;28;658039;-85
2021/04/05 06:41:56;;;;;;;12.50;5.43;;;4.70;99.90;;;;;;4413918;28;656587;-85
2021/04/05 06:44:51;;;;;;;13.40;4.90;;;4.90;99.90;;;;;;4406894;28;658435;-86
2021/04/05 06:47:59;;;;;;;15.13;5.23;;;5.00;99.90;;;;;;4432460;28;657473;-85
2021/04/05 06:50:49;;;;;;;12.07;4.90;;;5.20;99.90;;;;;;4429036;28;657427;-86
2021/04/05 06:53:51;;;;;;;10.40;4.93;;;5.40;99.90;;;;;;4429755;28;657421;-85
2021/04/05 06:56:46;;;;;;;11.20;4.80;;;5.60;99.90;;;;;;4417906;28;658401;-85
2021/04/05 06:59:38;;;;;;;10.73;4.27;;;5.80;99.90;;;;;;4430882;28;658110;-86
2021/04/05 07:02:50;;;;;;;11.53;4.60;;;5.90;99.90;;;;;;4427987;28;657790;-87
2021/04/05 07:06:02;;;;;;;11.30;4.43;;;6.10;99.90;;;;;;4427548;28;657580;-88
2021/04/05 07:09:02;;;;;;;8.13;4.20;;;6.20;99.90;;;;;;4357179;28;657873;-87
2021/04/05 07:12:17;;;;;;;13.23;4.57;;;6.40;99.90;;;;;;4362791;28;656668;-87
2021/04/05 07:15:31;;;;;;;10.93;4.37;;;6.60;99.90;;;;;;4356639;28;657965;-88
2021/04/05 07:18:44;;;;;;;12.00;4.40;;;6.90;99.90;;;;;;4322478;28;657540;-87
2021/04/05 07:21:39;;;;;;;8.83;4.23;;;7.20;99.90;;;;;;4313276;28;658296;-88
2021/04/05 07:24:30;;;;;;;12.07;5.10;;;7.30;99.90;;;;;;4328044;28;656682;-88
2021/04/05 07:27:20;;;;;;;10.17;4.67;;;7.30;99.90;;;;;;4307878;28;657899;-88
2021/04/05 07:30:13;;;;;;;15.47;5.33;;;7.50;99.90;;;;;;4326023;28;657696;-89
2021/04/05 07:33:07;;;;;;;10.07;4.93;;;7.50;99.90;;;;;;4326116;28;658954;-89
2021/04/05 07:35:59;;;;;;;10.73;5.40;;;7.60;99.90;;;;;;4322985;28;658018;-90
2021/04/05 07:38:51;;;;;;;9.50;4.83;;;7.80;99.90;;;;;;4326806;28;657768;-88
2021/04/05 07:41:46;;;;;;;9.33;3.90;;;7.90;99.90;;;;;;4327951;28;656623;-89
2021/04/05 07:44:41;;;;;;;12.80;4.83;;;8.00;99.90;;;;;;4327065;28;656388;-88
2021/04/05 07:47:36;;;;;;;12.20;4.67;;;8.20;99.90;;;;;;4322479;28;658561;-87
2021/04/05 07:50:27;;;;;;;9.97;4.07;;;8.20;99.60;;;;;;4356786;28;658087;-88
2021/04/05 07:53:21;;;;;;;13.43;5.33;;;8.30;99.90;;;;;;4362007;28;657657;-87
2021/04/05 07:56:15;;;;;;;8.73;4.17;;;8.40;99.00;;;;;;4359803;28;658562;-87
2021/04/05 07:59:22;;;;;;;12.67;4.70;;;8.50;98.60;;;;;;4387744;28;656638;-87
2021/04/05 08:02:17;;;;;;;10.20;4.73;;;8.50;96.90;;;;;;4390213;28;657858;-87
2021/04/05 08:05:12;;;;;;;13.10;4.40;;;8.60;97.00;;;;;;4414813;28;657666;-88
2021/04/05 08:08:12;;;;;;;14.87;4.00;;;8.80;97.00;;;;;;4410228;28;658142;-87
2021/04/05 08:11:10;;;;;;;10.33;4.17;;;8.70;95.90;;;;;;4414772;28;657884;-88
2021/04/05 08:14:26;;;;;;;12.87;4.60;;;8.70;95.90;;;;;;4397033;28;657759;-87
2021/04/05 08:17:22;;;;;;;10.33;4.40;;;8.80;96.80;;;;;;4412714;28;657553;-87
2021/04/05 08:20:12;;;;;;;10.13;4.78;;;9.10;95.60;;;;;;4412450;28;657421;-88
2021/04/05 08:23:07;;;;;;;9.73;4.03;;;9.40;96.10;;;;;;4412362;28;658018;-87
2021/04/05 08:26:00;;;;;;;12.47;4.27;;;9.40;94.30;;;;;;4410519;28;657605;-90
2021/04/05 08:28:52;;;;;;;9.30;3.97;;;9.30;93.70;;;;;;4412662;28;657324;-87
2021/04/05 08:31:57;;;;;;;12.83;5.00;;;9.50;93.20;;;;;;4399187;28;657154;-87
2021/04/05 08:35:10;;;;;;;9.27;4.03;;;9.40;93.00;;;;;;4385944;28;657889;-86
2021/04/05 08:38:07;;;;;;;13.87;5.20;;;9.40;92.50;;;;;;4429565;28;656535;-86
2021/04/05 08:41:03;;;;;;;9.90;4.63;;;9.10;92.50;;;;;;4401032;28;657566;-86
2021/04/05 08:44:03;;;;;;;11.57;5.03;;;9.20;92.70;;;;;;4410297;28;656980;-88
2021/04/05 08:46:52;;;;;;;12.27;4.37;;;9.50;92.90;;;;;;4412475;28;657614;-88
2021/04/05 08:49:41;;;;;;;11.93;4.30;;;9.60;92.10;;;;;;4408688;28;658827;-88
2021/04/05 08:52:31;;;;;;;13.70;4.87;;;9.70;92.10;;;;;;4412423;28;657914;-89
2021/04/05 08:55:23;;;;;;;11.43;4.37;;;9.90;91.40;;;;;;4412553;28;657829;-88
2021/04/05 08:58:15;;;;;;;12.23;4.70;;;10.00;91.30;;;;;;4402200;28;658090;-88
2021/04/05 09:01:09;;;;;;;11.57;5.03;;;10.30;91.80;;;;;;4400615;28;658704;-87
2021/04/05 09:03:59;;;;;;;12.17;4.60;;;10.40;90.70;;;;;;4411360;28;658578;-89
2021/04/05 09:06:53;;;;;;;13.15;5.18;;;10.40;89.80;;;;;;4408404;28;658718;-86
2021/04/05 09:09:40;;;;;;;12.57;4.70;;;10.30;90.40;;;;;;4411047;28;659204;-88
2021/04/05 09:12:29;;;;;;;13.30;5.33;;;10.40;89.20;;;;;;4411251;28;658707;-88
2021/04/05 09:15:51;;;;;;;12.63;4.57;;;10.10;90.00;;;;;;4432880;28;658022;-88
2021/04/05 09:19:06;;;;;;;12.23;5.87;;;10.40;89.50;;;;;;4356777;28;659560;-87
2021/04/05 09:22:19;;;;;;;11.83;5.00;;;10.70;87.90;;;;;;4357689;28;658577;-87
2021/04/05 09:25:18;;;;;;;11.00;5.40;;;10.60;87.60;;;;;;4356862;28;658373;-88
2021/04/05 09:28:48;;;;;;;11.10;4.27;;;10.70;88.50;;;;;;4353179;28;658638;-88
2021/04/05 09:32:09;;;;;;;16.43;7.70;;;10.60;87.60;;;;;;4302521;29;659080;-87
2021/04/05 09:35:12;;;;;;;9.77;4.93;;;10.80;87.80;;;;;;4303558;29;659004;-88
2021/04/05 09:38:22;;;;;;;16.90;5.33;;;11.30;87.40;;;;;;4308265;29;657226;-86
2021/04/05 09:41:20;;;;;;;13.93;5.67;;;11.30;86.50;;;;;;4302141;29;659279;-88
2021/04/05 09:44:48;;;;;;;13.63;4.83;;;11.60;85.40;;;;;;4287527;29;659236;-87
2021/04/05 09:48:13;;;;;;;9.70;4.50;;;11.80;84.50;;;;;;4302649;29;659132;-88
2021/04/05 09:52:01;;;;;;;10.50;4.63;;;11.90;83.40;;;;;;4292057;29;657666;-86
2021/04/05 09:54:50;;;;;;;14.57;4.90;;;11.90;82.80;;;;;;4306291;29;658694;-86
2021/04/05 09:57:43;;;;;;;10.37;4.40;;;12.20;80.90;;;;;;4325045;29;658623;-89
2021/04/05 10:00:31;;;;;;;13.77;4.17;;;12.10;81.00;;;;;;4353606;28;658968;-88
2021/04/05 10:03:21;;;;;;;10.17;3.43;;;12.20;82.50;;;;;;4357121;28;659129;-89
2021/04/05 10:06:13;;;;;;;7.03;3.17;;;12.20;79.50;;;;;;4356259;28;659074;-86
2021/04/05 10:09:06;;;;;;;8.17;4.13;;;12.30;80.10;;;;;;4354834;28;657999;-90
2021/04/05 10:11:57;;;;;;;11.13;3.83;;;12.50;79.30;;;;;;4385885;28;657570;-87
2021/04/05 10:14:45;;;;;;;8.13;3.70;;;12.00;77.00;;;;;;4410912;28;658705;-89
2021/04/05 10:17:34;;;;;;;9.70;3.30;;;12.00;78.10;;;;;;4410578;28;657520;-89
2021/04/05 10:20:24;;;;;;;11.70;4.60;;;12.00;79.00;;;;;;4430052;28;658064;-89
2021/04/05 10:23:13;;;;;;;7.57;2.78;;;12.00;77.20;;;;;;4409668;28;658475;-88
2021/04/05 10:26:04;;;;;;;7.67;3.70;;;12.00;77.50;;;;;;4411075;28;658605;-89
2021/04/05 10:28:52;;;;;;;9.93;3.93;;;12.20;77.00;;;;;;4410700;28;657345;-89
2021/04/05 10:31:41;;;;;;;8.93;3.40;;;12.30;75.30;;;;;;4406875;28;658892;-91
2021/04/05 10:34:29;;;;;;;7.70;3.33;;;12.50;74.40;;;;;;4410302;28;657650;-87
2021/04/05 10:37:18;;;;;;;9.77;3.17;;;12.20;74.60;;;;;;4436838;28;658396;-87
2021/04/05 10:40:11;;;;;;;8.40;3.40;;;12.30;74.50;;;;;;4413289;28;658641;-90
2021/04/05 10:43:09;;;;;;;8.23;3.30;;;12.60;73.30;;;;;;4412600;28;658190;-89
2021/04/05 10:45:58;;;;;;;12.53;4.60;;;12.70;72.00;;;;;;4414104;28;657839;-87
2021/04/05 10:48:52;;;;;;;13.50;3.80;;;12.40;72.90;;;;;;4401286;28;659842;-90
2021/04/05 10:51:43;;;;;;;11.33;3.87;;;12.70;71.60;;;;;;4407995;28;658788;-88
2021/04/05 10:54:36;;;;;;;8.98;2.78;;;12.70;70.20;;;;;;4412038;28;658860;-87
2021/04/05 10:57:30;;;;;;;9.63;3.40;;;12.70;70.80;;;;;;4414673;28;657791;-90
2021/04/05 11:00:23;;;;;;;6.80;3.00;;;12.50;69.30;;;;;;4398014;28;658223;-88
2021/04/05 11:03:17;;;;;;;7.63;3.23;;;12.30;67.90;;;;;;4409909;28;658429;-87
2021/04/05 11:06:07;;;;;;;8.37;3.57;;;12.20;69.80;;;;;;4413555;28;657528;-89
2021/04/05 11:08:57;;;;;;;8.00;2.97;;;12.10;68.60;;;;;;4410628;28;657888;-89
2021/04/05 11:11:46;;;;;;;8.33;3.80;;;12.20;67.50;;;;;;4400545;28;658138;-89
2021/04/05 11:14:34;;;;;;;7.97;3.27;;;12.40;67.70;;;;;;4413265;28;657796;-89
2021/04/05 11:17:25;;;;;;;6.17;2.93;;;12.40;69.60;;;;;;4437203;28;657460;-88
2021/04/05 11:20:15;;;;;;;11.40;3.77;;;12.50;67.70;;;;;;4414015;28;657340;-88
2021/04/05 11:23:06;;;;;;;7.30;3.40;;;12.40;69.50;;;;;;4413326;28;658751;-89
2021/04/05 11:26:01;;;;;;;6.77;3.37;;;12.60;68.30;;;;;;4391882;28;657906;-90
2021/04/05 11:28:57;;;;;;;10.43;3.40;;;13.00;67.40;;;;;;4413626;28;658248;-89
2021/04/05 11:31:48;;;;;;;4.60;2.70;;;12.70;67.50;;;;;;4412746;28;658355;-89
2021/04/05 11:34:40;;;;;;;8.00;2.90;;;12.50;67.30;;;;;;4410360;28;658577;-88
2021/04/05 11:37:36;;;;;;;8.20;3.67;;;12.10;68.90;;;;;;4397305;28;657767;-89
2021/04/05 11:40:30;;;;;;;8.37;3.33;;;12.10;68.90;;;;;;4413105;28;657657;-90
2021/04/05 11:43:20;;;;;;;6.50;3.30;;;11.80;69.70;;;;;;4413833;28;657889;-88
2021/04/05 11:46:11;;;;;;;13.57;3.80;;;11.70;69.70;;;;;;4424021;28;657455;-88
2021/04/05 11:49:04;;;;;;;6.70;3.13;;;11.80;69.10;;;;;;4412520;28;658643;-87
2021/04/05 11:52:04;;;;;;;7.30;3.30;;;11.50;69.00;;;;;;4413715;28;657751;-89
2021/04/05 11:54:54;;;;;;;8.27;3.47;;;11.50;69.40;;;;;;4413699;28;657532;-90
2021/04/05 11:57:46;;;;;;;10.23;3.70;;;11.70;71.10;;;;;;4413541;28;657184;-87
2021/04/05 12:00:40;;;;;;;9.70;3.53;;;11.70;69.30;;;;;;4411557;28;658748;-88
2021/04/05 12:03:34;;;;;;;7.47;2.87;;;11.70;69.80;;;;;;4393250;28;658057;-88
2021/04/05 12:06:32;;;;;;;7.30;3.43;;;11.70;68.60;;;;;;4413316;28;658356;-89
2021/04/05 12:09:25;;;;;;;9.80;3.67;;;11.70;69.40;;;;;;4413274;28;657494;-88
2021/04/05 12:12:19;;;;;;;7.30;3.23;;;11.70;69.70;;;;;;4365888;28;657833;-88
2021/04/05 12:15:15;;;;;;;6.37;3.87;;;11.60;69.70;;;;;;4407726;28;657674;-89
2021/04/05 12:18:06;;;;;;;6.60;3.70;;;11.50;68.60;;;;;;4389794;28;658200;-88
2021/04/05 12:21:04;;;;;;;8.60;3.50;;;11.60;69.20;;;;;;4401585;28;658040;-89
2021/04/05 12:23:56;;;;;;;9.83;3.73;;;11.70;69.80;;;;;;4413083;28;657518;-89
2021/04/05 12:26:44;;;;;;;6.77;2.90;;;12.00;68.90;;;;;;4403447;28;657407;-87
2021/04/05 12:29:33;;;;;;;8.23;3.67;;;12.20;69.30;;;;;;4435714;28;657265;-89
2021/04/05 12:32:23;;;;;;;9.13;4.27;;;12.30;69.60;;;;;;4409388;28;658048;-89
2021/04/05 12:35:12;;;;;;;11.53;4.43;;;12.70;70.80;;;;;;4413170;28;657860;-89
2021/04/05 12:38:01;;;;;;;4.90;2.97;;;13.40;69.20;;;;;;4408280;28;659483;-87
2021/04/05 12:40:50;;;;;;;10.65;4.03;;;13.80;66.10;;;;;;4403131;28;657501;-89
2021/04/05 12:43:40;;;;;;;7.33;3.70;;;14.20;64.80;;;;;;4409811;28;658496;-87
2021/04/05 12:46:28;;;;;;;7.37;3.23;;;14.40;63.10;;;;;;4412549;28;658013;-90
2021/04/05 12:49:18;;;;;;;5.53;3.07;;;14.50;61.00;;;;;;4418304;28;658175;-90
2021/04/05 12:52:07;;;;;;;4.30;2.50;;;14.50;60.80;;;;;;4412494;28;657995;-88
2021/04/05 12:54:55;;;;;;;7.53;2.93;;;14.10;58.40;;;;;;4412844;28;657551;-89
2021/04/05 12:57:46;;;;;;;7.57;3.00;;;13.60;58.70;;;;;;4418189;28;658206;-88
2021/04/05 13:00:39;;;;;;;8.65;3.25;;;13.30;59.40;;;;;;4412666;28;657570;-88
2021/04/05 13:03:29;;;;;;;11.77;3.40;;;13.10;58.90;;;;;;4412421;28;657539;-89
2021/04/05 13:06:18;;;;;;;5.87;2.83;;;12.90;59.50;;;;;;4410822;28;659585;-89
2021/04/05 13:09:07;;;;;;;6.70;2.77;;;12.80;60.10;;;;;;4412572;28;658199;-87
2021/04/05 13:11:55;;;;;;;9.40;3.53;;;12.70;62.10;;;;;;4409154;28;658077;-89
2021/04/05 13:14:48;;;;;;;5.73;3.10;;;12.60;63.10;;;;;;4412531;28;657378;-88
2021/04/05 13:17:38;;;;;;;10.47;3.70;;;12.60;62.50;;;;;;4412285;28;658572;-86
2021/04/05 13:20:29;;;;;;;7.65;3.90;;;12.40;62.50;;;;;;4411659;28;659152;-89
2021/04/05 13:23:21;;;;;;;7.50;3.60;;;12.30;63.60;;;;;;4412457;28;657612;-88
2021/04/05 13:26:10;;;;;;;6.43;3.13;;;12.30;64.20;;;;;;4412690;28;657577;-87
2021/04/05 13:28:58;;;;;;;9.77;3.87;;;12.20;63.40;;;;;;4425717;28;658055;-88
2021/04/05 13:31:45;;;;;;;8.67;3.90;;;12.10;64.70;;;;;;4434172;28;657388;-88
2021/04/05 13:34:34;;;;;;;8.00;4.03;;;12.00;65.10;;;;;;4431198;28;657975;-89
2021/04/05 13:37:21;;;;;;;11.40;3.93;;;12.00;63.40;;;;;;4412410;28;657557;-90
2021/04/05 13:40:09;;;;;;;8.00;3.60;;;11.80;65.00;;;;;;4410288;28;658690;-89
2021/04/05 13:42:57;;;;;;;10.50;4.07;;;11.70;64.50;;;;;;4434997;28;657612;-89
2021/04/05 13:45:46;;;;;;;7.93;3.57;;;11.70;65.60;;;;;;4409774;28;658638;-89
2021/04/05 13:48:33;;;;;;;10.50;3.90;;;11.60;64.40;;;;;;4412166;28;657820;-88
2021/04/05 13:51:23;;;;;;;7.13;3.93;;;11.60;64.90;;;;;;4432911;28;659279;-90
2021/04/05 13:54:10;;;;;;;7.10;3.50;;;11.40;64.30;;;;;;4401326;28;658106;-88
2021/04/05 13:56:59;;;;;;;6.80;3.70;;;11.30;64.20;;;;;;4414291;28;657811;-88
2021/04/05 14:00:00;;;;;;;7.70;3.57;;;11.20;65.30;;;;;;4431328;28;658372;-89
2021/04/05 14:02:51;;;;;;;7.00;3.33;;;11.10;65.10;;;;;;4424673;28;657626;-89
2021/04/05 14:05:39;;;;;;;10.90;4.40;;;11.10;64.80;;;;;;4410947;28;657845;-88
2021/04/05 14:08:27;;;;;;;10.03;3.93;;;11.20;65.00;;;;;;4433579;28;658670;-90
2021/04/05 14:11:16;;;;;;;8.80;4.40;;;11.20;64.00;;;;;;4413188;28;658896;-89
2021/04/05 14:14:04;;;;;;;8.43;3.60;;;11.10;63.90;;;;;;4413977;28;658173;-88
2021/04/05 14:16:56;;;;;;;11.87;4.50;;;11.10;64.00;;;;;;4435135;28;657896;-88
2021/04/05 14:19:46;;;;;;;11.33;4.07;;;11.10;65.10;;;;;;4414439;28;658711;-88
2021/04/05 14:22:38;;;;;;;8.47;4.43;;;11.10;65.30;;;;;;4409395;28;658317;-87
2021/04/05 14:25:27;;;;;;;12.77;4.40;;;11.00;65.10;;;;;;4415534;28;658247;-89
2021/04/05 14:28:15;;;;;;;7.83;3.93;;;11.10;65.10;;;;;;4410216;28;659257;-88
2021/04/05 14:31:06;;;;;;;10.35;4.43;;;11.10;65.00;;;;;;4419240;28;657645;-89
2021/04/05 14:33:54;;;;;;;11.77;4.47;;;11.00;65.10;;;;;;4411937;28;658576;-89